createdAt,value
2019-05-23T00:00:21.242Z,8.48
2019-05-23T00:01:21.228Z,8.58
2019-05-23T00:02:21.220Z,8.62
2019-05-23T00:03:21.200Z,8.52
2019-05-23T00:04:21.183Z,8.50
2019-05-23T00:05:21.169Z,8.47
2019-05-23T00:06:21.158Z,8.38
2019-05-23T00:07:21.141Z,8.36
2019-05-23T00:08:21.135Z,8.28
2019-05-23T00:09:21.115Z,8.34
2019-05-23T00:10:21.099Z,8.26
2019-05-23T00:11:21.087Z,8.33
2019-05-23T00:12:21.072Z,8.23
2019-05-23T00:13:21.054Z,8.36
2019-05-23T00:14:21.045Z,8.25
2019-05-23T00:15:21.028Z,8.36
2019-05-23T00:16:21.019Z,8.28
2019-05-23T00:17:20.997Z,8.40
2019-05-23T00:18:21.358Z,8.38
2019-05-23T00:19:20.966Z,8.53
2019-05-23T00:20:20.952Z,8.47
2019-05-23T00:21:20.937Z,8.45
2019-05-23T00:22:20.920Z,8.47
2019-05-23T00:23:20.974Z,8.41
2019-05-23T00:24:20.893Z,8.38
2019-05-23T00:25:20.877Z,8.34
2019-05-23T00:26:20.863Z,8.29
2019-05-23T00:27:20.844Z,8.29
2019-05-23T00:28:20.835Z,8.34
2019-05-23T00:29:20.826Z,8.41
2019-05-23T00:30:20.820Z,8.41
2019-05-23T00:31:20.794Z,8.38
2019-05-23T00:32:20.779Z,8.38
2019-05-23T00:33:20.762Z,8.43
2019-05-23T00:34:20.742Z,8.38
2019-05-23T00:35:20.730Z,8.40
2019-05-23T00:36:20.717Z,8.47
2019-05-23T00:37:20.731Z,8.40
2019-05-23T00:38:20.687Z,8.38
2019-05-23T00:39:20.671Z,8.29
2019-05-23T00:40:20.655Z,8.34
2019-05-23T00:41:20.641Z,8.28
2019-05-23T00:42:20.630Z,8.28
2019-05-23T00:43:20.614Z,8.34
2019-05-23T00:44:20.600Z,8.33
2019-05-23T00:45:20.587Z,8.29
2019-05-23T00:46:20.576Z,8.33
2019-05-23T00:47:20.557Z,8.34
2019-05-23T00:48:20.537Z,8.29
2019-05-23T00:49:20.527Z,8.18
2019-05-23T00:50:20.509Z,8.22
2019-05-23T00:51:20.501Z,8.30
2019-05-23T00:52:20.484Z,8.16
2019-05-23T00:53:20.466Z,8.20
2019-05-23T00:54:20.456Z,8.12
2019-05-23T00:55:20.438Z,8.02
2019-05-23T00:56:20.423Z,8.04
2019-05-23T00:57:20.443Z,8.01
2019-05-23T00:58:20.392Z,7.92
2019-05-23T00:59:27.027Z,7.97
2019-05-23T01:00:20.366Z,8.02
2019-05-23T01:01:20.350Z,8.00
2019-05-23T01:02:20.371Z,7.98
2019-05-23T01:03:20.330Z,7.93
2019-05-23T01:04:20.308Z,7.92
2019-05-23T01:05:20.289Z,7.92
2019-05-23T01:06:20.270Z,7.92
2019-05-23T01:07:20.256Z,7.92
2019-05-23T01:08:20.243Z,7.95
2019-05-23T01:09:20.228Z,7.92
2019-05-23T01:10:20.209Z,7.95
2019-05-23T01:11:20.200Z,8.01
2019-05-23T01:12:20.186Z,7.95
2019-05-23T01:13:20.172Z,8.00
2019-05-23T01:14:20.154Z,7.95
2019-05-23T01:15:20.146Z,7.92
2019-05-23T01:16:20.128Z,7.86
2019-05-23T01:17:20.111Z,7.82
2019-05-23T01:18:20.098Z,7.82
2019-05-23T01:19:20.087Z,7.79
2019-05-23T01:20:20.067Z,7.71
2019-05-23T01:21:20.124Z,7.79
2019-05-23T01:22:20.034Z,7.72
2019-05-23T01:23:20.020Z,7.69
2019-05-23T01:24:20.003Z,7.72
2019-05-23T01:25:19.995Z,7.79
2019-05-23T01:26:19.983Z,7.72
2019-05-23T01:27:19.981Z,7.71
2019-05-23T01:28:19.945Z,7.67
2019-05-23T01:29:19.931Z,7.71
2019-05-23T01:30:19.917Z,7.64
2019-05-23T01:31:19.919Z,7.63
2019-05-23T01:32:19.946Z,7.72
2019-05-23T01:33:19.870Z,7.77
2019-05-23T01:34:19.856Z,7.79
2019-05-23T01:35:19.840Z,7.82
2019-05-23T01:36:19.830Z,7.80
2019-05-23T01:37:19.817Z,7.79
2019-05-23T01:38:19.796Z,7.90
2019-05-23T01:39:19.788Z,7.92
2019-05-23T01:40:19.765Z,7.93
2019-05-23T01:41:19.753Z,7.95
2019-05-23T01:42:19.739Z,7.90
2019-05-23T01:43:19.728Z,8.00
2019-05-23T01:44:19.709Z,7.97
2019-05-23T01:45:19.692Z,7.98
2019-05-23T01:46:19.675Z,8.07
2019-05-23T01:47:19.661Z,7.95
2019-05-23T01:48:19.653Z,7.89
2019-05-23T01:49:19.636Z,7.79
2019-05-23T01:50:19.614Z,7.72
2019-05-23T01:51:19.600Z,7.80
2019-05-23T01:52:19.587Z,7.64
2019-05-23T01:53:19.572Z,7.67
2019-05-23T01:54:19.558Z,7.67
2019-05-23T01:55:19.547Z,7.67
2019-05-23T01:56:19.526Z,7.53
2019-05-23T01:57:19.510Z,7.55
2019-05-23T01:58:19.499Z,7.68
2019-05-23T01:59:19.483Z,7.67
2019-05-23T02:00:19.465Z,7.67
2019-05-23T02:01:19.451Z,7.68
2019-05-23T02:02:19.437Z,7.69
2019-05-23T02:03:19.418Z,7.67
2019-05-23T02:04:19.407Z,7.69
2019-05-23T02:05:19.391Z,7.67
2019-05-23T02:06:19.378Z,7.74
2019-05-23T02:07:19.369Z,7.86
2019-05-23T02:08:19.351Z,7.85
2019-05-23T02:09:19.342Z,7.77
2019-05-23T02:10:19.316Z,7.90
2019-05-23T02:11:19.304Z,7.83
2019-05-23T02:12:19.294Z,7.87
2019-05-23T02:13:19.272Z,7.95
2019-05-23T02:14:19.254Z,7.95
2019-05-23T02:15:19.239Z,7.92
2019-05-23T02:16:19.228Z,7.97
2019-05-23T02:17:19.211Z,7.93
2019-05-23T02:18:19.197Z,7.95
2019-05-23T02:19:19.189Z,8.00
2019-05-23T02:20:19.172Z,7.95
2019-05-23T02:21:19.152Z,8.00
2019-05-23T02:22:19.140Z,8.01
2019-05-23T02:23:19.135Z,7.97
2019-05-23T02:24:19.105Z,8.01
2019-05-23T02:25:19.094Z,8.00
2019-05-23T02:26:19.076Z,8.01
2019-05-23T02:27:19.064Z,7.95
2019-05-23T02:28:19.043Z,8.02
2019-05-23T02:29:19.031Z,7.98
2019-05-23T02:30:33.283Z,7.89
2019-05-23T02:31:19.002Z,7.82
2019-05-23T02:32:18.989Z,7.85
2019-05-23T02:33:18.974Z,7.86
2019-05-23T02:34:18.955Z,7.82
2019-05-23T02:35:18.945Z,7.83
2019-05-23T02:36:18.928Z,7.89
2019-05-23T02:37:18.912Z,7.86
2019-05-23T02:38:18.896Z,7.87
2019-05-23T02:39:18.885Z,7.86
2019-05-23T02:40:18.864Z,7.80
2019-05-23T02:41:18.852Z,7.72
2019-05-23T02:42:18.845Z,7.85
2019-05-23T02:43:18.819Z,7.71
2019-05-23T02:44:18.813Z,7.63
2019-05-23T02:45:18.801Z,7.67
2019-05-23T02:46:18.800Z,7.63
2019-05-23T02:47:18.769Z,7.68
2019-05-23T02:48:18.757Z,7.63
2019-05-23T02:49:18.729Z,7.68
2019-05-23T02:50:18.718Z,7.61
2019-05-23T02:51:18.698Z,7.63
2019-05-23T02:52:18.688Z,7.67
2019-05-23T02:53:18.669Z,7.69
2019-05-23T02:54:18.672Z,7.67
2019-05-23T02:55:18.645Z,7.63
2019-05-23T02:56:18.627Z,7.53
2019-05-23T02:57:18.609Z,7.37
2019-05-23T02:58:18.596Z,7.30
2019-05-23T02:59:18.583Z,7.20
2019-05-23T03:00:18.569Z,7.16
2019-05-23T03:01:18.548Z,7.24
2019-05-23T03:02:18.545Z,7.20
2019-05-23T03:03:18.538Z,7.07
2019-05-23T03:04:18.510Z,7.21
2019-05-23T03:05:18.496Z,7.17
2019-05-23T03:06:18.472Z,7.23
2019-05-23T03:07:18.456Z,7.10
2019-05-23T03:08:18.447Z,7.13
2019-05-23T03:09:18.434Z,7.17
2019-05-23T03:10:18.417Z,7.09
2019-05-23T03:11:18.405Z,7.10
2019-05-23T03:12:18.385Z,7.21
2019-05-23T03:13:18.370Z,7.21
2019-05-23T03:14:18.356Z,7.20
2019-05-23T03:15:18.338Z,7.20
2019-05-23T03:16:18.320Z,7.20
2019-05-23T03:17:18.309Z,7.17
2019-05-23T03:18:18.292Z,7.16
2019-05-23T03:19:18.278Z,7.16
2019-05-23T03:20:18.261Z,7.20
2019-05-23T03:21:18.248Z,7.20
2019-05-23T03:22:18.233Z,7.17
2019-05-23T03:23:18.219Z,7.17
2019-05-23T03:24:18.210Z,7.20
2019-05-23T03:25:18.187Z,7.16
2019-05-23T03:26:18.186Z,7.24
2019-05-23T03:27:18.156Z,7.17
2019-05-23T03:28:18.146Z,7.23
2019-05-23T03:29:18.126Z,7.23
2019-05-23T03:30:18.136Z,7.30
2019-05-23T03:31:30.792Z,7.21
2019-05-23T03:32:18.080Z,7.28
2019-05-23T03:33:18.064Z,7.30
2019-05-23T03:34:18.050Z,7.34
2019-05-23T03:35:18.032Z,7.32
2019-05-23T03:36:18.017Z,7.31
2019-05-23T03:37:18.001Z,7.37
2019-05-23T03:38:17.984Z,7.39
2019-05-23T03:39:17.971Z,7.34
2019-05-23T03:40:17.957Z,7.34
2019-05-23T03:41:17.941Z,7.39
2019-05-23T03:42:17.922Z,7.31
2019-05-23T03:43:17.914Z,7.32
2019-05-23T03:44:17.900Z,7.31
2019-05-23T03:45:17.882Z,7.25
2019-05-23T03:46:17.862Z,7.25
2019-05-23T03:47:17.849Z,7.30
2019-05-23T03:48:17.835Z,7.21
2019-05-23T03:49:17.822Z,7.20
2019-05-23T03:50:17.805Z,7.23
2019-05-23T03:51:17.787Z,7.23
2019-05-23T03:52:17.774Z,7.24
2019-05-23T03:53:17.753Z,7.23
2019-05-23T03:54:17.746Z,7.23
2019-05-23T03:55:17.724Z,7.31
2019-05-23T03:56:17.712Z,7.27
2019-05-23T03:57:17.690Z,7.28
2019-05-23T03:58:17.683Z,7.24
2019-05-23T03:59:17.693Z,7.30
2019-05-23T04:00:17.652Z,7.24
2019-05-23T04:01:17.633Z,7.39
2019-05-23T04:02:17.619Z,7.35
2019-05-23T04:03:17.613Z,7.37
2019-05-23T04:04:17.593Z,7.28
2019-05-23T04:05:17.574Z,7.40
2019-05-23T04:06:17.562Z,7.35
2019-05-23T04:07:17.545Z,7.34
2019-05-23T04:08:17.524Z,7.42
2019-05-23T04:09:17.518Z,7.34
2019-05-23T04:10:17.496Z,7.34
2019-05-23T04:11:17.481Z,7.35
2019-05-23T04:12:17.470Z,7.34
2019-05-23T04:13:17.460Z,7.35
2019-05-23T04:14:17.443Z,7.40
2019-05-23T04:15:17.431Z,7.37
2019-05-23T04:16:17.407Z,7.37
2019-05-23T04:17:17.397Z,7.50
2019-05-23T04:18:17.406Z,7.52
2019-05-23T04:19:17.370Z,7.49
2019-05-23T04:20:17.348Z,7.49
2019-05-23T04:21:17.327Z,7.55
2019-05-23T04:22:17.318Z,7.53
2019-05-23T04:23:17.297Z,7.53
2019-05-23T04:24:17.308Z,7.52
2019-05-23T04:25:17.272Z,7.58
2019-05-23T04:26:17.253Z,7.57
2019-05-23T04:27:17.238Z,7.60
2019-05-23T04:28:17.223Z,7.58
2019-05-23T04:29:17.206Z,7.53
2019-05-23T04:30:17.197Z,7.53
2019-05-23T04:31:17.179Z,7.50
2019-05-23T04:32:17.163Z,7.55
2019-05-23T04:33:17.162Z,7.60
2019-05-23T04:34:17.137Z,7.58
2019-05-23T04:35:17.119Z,7.55
2019-05-23T04:36:17.106Z,7.64
2019-05-23T04:37:17.090Z,7.71
2019-05-23T04:38:17.074Z,7.63
2019-05-23T04:39:17.067Z,7.64
2019-05-23T04:40:17.043Z,7.69
2019-05-23T04:41:17.027Z,7.68
2019-05-23T04:42:17.022Z,7.82
2019-05-23T04:43:16.994Z,7.72
2019-05-23T04:44:16.997Z,7.69
2019-05-23T04:45:16.963Z,7.68
2019-05-23T04:46:16.949Z,7.68
2019-05-23T04:47:16.935Z,7.71
2019-05-23T04:48:16.930Z,7.67
2019-05-23T04:49:16.902Z,7.67
2019-05-23T04:50:16.885Z,7.64
2019-05-23T04:51:16.878Z,7.58
2019-05-23T04:52:16.862Z,7.60
2019-05-23T04:53:16.843Z,7.57
2019-05-23T04:54:16.828Z,7.43
2019-05-23T04:55:16.812Z,7.45
2019-05-23T04:56:16.801Z,7.34
2019-05-23T04:57:16.805Z,7.35
2019-05-23T04:58:16.767Z,7.32
2019-05-23T04:59:16.754Z,7.32
2019-05-23T05:00:16.732Z,7.17
2019-05-23T05:01:16.721Z,7.17
2019-05-23T05:02:26.096Z,7.21
2019-05-23T05:03:18.320Z,7.17
2019-05-23T05:04:16.675Z,7.20
2019-05-23T05:05:16.659Z,7.16
2019-05-23T05:06:16.647Z,7.20
2019-05-23T05:07:16.653Z,7.20
2019-05-23T05:08:16.730Z,7.27
2019-05-23T05:09:16.607Z,7.27
2019-05-23T05:10:16.580Z,7.30
2019-05-23T05:11:16.571Z,7.23
2019-05-23T05:12:16.555Z,7.28
2019-05-23T05:13:16.537Z,7.24
2019-05-23T05:14:16.526Z,7.27
2019-05-23T05:15:16.520Z,7.30
2019-05-23T05:16:16.500Z,7.31
2019-05-23T05:17:16.476Z,7.28
2019-05-23T05:18:16.472Z,7.28
2019-05-23T05:19:16.446Z,7.28
2019-05-23T05:20:16.429Z,7.39
2019-05-23T05:21:16.415Z,7.35
2019-05-23T05:22:16.418Z,7.32
2019-05-23T05:23:16.388Z,7.25
2019-05-23T05:24:16.371Z,7.32
2019-05-23T05:25:16.359Z,7.28
2019-05-23T05:26:16.343Z,7.34
2019-05-23T05:27:16.324Z,7.15
2019-05-23T05:28:16.303Z,7.17
2019-05-23T05:29:16.293Z,7.20
2019-05-23T05:30:16.281Z,7.15
2019-05-23T05:31:16.271Z,7.12
2019-05-23T05:32:16.274Z,7.02
2019-05-23T05:33:16.235Z,7.12
2019-05-23T05:34:16.221Z,7.07
2019-05-23T05:35:16.206Z,7.25
2019-05-23T05:36:16.188Z,7.24
2019-05-23T05:37:16.177Z,7.21
2019-05-23T05:38:16.161Z,7.28
2019-05-23T05:39:16.145Z,7.28
2019-05-23T05:40:16.126Z,7.25
2019-05-23T05:41:16.108Z,7.27
2019-05-23T05:42:16.095Z,7.25
2019-05-23T05:43:16.077Z,7.31
2019-05-23T05:44:16.062Z,7.28
2019-05-23T05:45:16.050Z,7.30
2019-05-23T05:46:16.039Z,7.39
2019-05-23T05:47:16.019Z,7.37
2019-05-23T05:48:16.006Z,7.35
2019-05-23T05:49:15.988Z,7.39
2019-05-23T05:50:15.972Z,7.31
2019-05-23T05:51:15.959Z,7.27
2019-05-23T05:52:15.944Z,7.27
2019-05-23T05:53:15.929Z,7.34
2019-05-23T05:54:15.915Z,7.25
2019-05-23T05:55:15.918Z,7.39
2019-05-23T05:56:15.898Z,7.30
2019-05-23T05:57:15.863Z,7.35
2019-05-23T05:58:15.853Z,7.31
2019-05-23T05:59:15.839Z,7.40
2019-05-23T06:00:15.829Z,7.45
2019-05-23T06:01:31.127Z,7.55
2019-05-23T06:02:15.783Z,7.53
2019-05-23T06:03:15.775Z,7.69
2019-05-23T06:04:15.759Z,7.87
2019-05-23T06:05:15.741Z,8.00
2019-05-23T06:06:15.725Z,8.07
2019-05-23T06:07:15.710Z,8.22
2019-05-23T06:08:15.700Z,8.26
2019-05-23T06:09:15.686Z,8.33
2019-05-23T06:10:15.669Z,8.50
2019-05-23T06:11:15.661Z,8.50
2019-05-23T06:12:15.639Z,8.68
2019-05-23T06:13:15.616Z,8.77
2019-05-23T06:14:15.607Z,8.92
2019-05-23T06:15:15.608Z,8.99
2019-05-23T06:16:15.582Z,9.11
2019-05-23T06:17:15.566Z,9.20
2019-05-23T06:18:15.548Z,9.26
2019-05-23T06:19:15.541Z,9.39
2019-05-23T06:20:15.527Z,9.54
2019-05-23T06:21:15.508Z,9.66
2019-05-23T06:22:15.501Z,9.71
2019-05-23T06:23:15.475Z,9.72
2019-05-23T06:24:15.458Z,9.84
2019-05-23T06:25:15.448Z,9.91
2019-05-23T06:26:15.428Z,9.94
2019-05-23T06:27:15.411Z,10.01
2019-05-23T06:28:15.399Z,9.91
2019-05-23T06:29:15.394Z,10.09
2019-05-23T06:30:15.369Z,10.08
2019-05-23T06:31:15.358Z,10.12
2019-05-23T06:32:15.341Z,10.23
2019-05-23T06:33:23.113Z,10.29
2019-05-23T06:34:15.312Z,10.34
2019-05-23T06:35:15.296Z,10.42
2019-05-23T06:36:15.286Z,10.40
2019-05-23T06:37:15.272Z,10.45
2019-05-23T06:38:15.257Z,10.48
2019-05-23T06:39:15.241Z,10.67
2019-05-23T06:40:15.226Z,10.60
2019-05-23T06:41:15.207Z,10.66
2019-05-23T06:42:15.199Z,10.79
2019-05-23T06:43:15.184Z,10.68
2019-05-23T06:44:15.177Z,10.82
2019-05-23T06:45:15.162Z,10.84
2019-05-23T06:46:15.142Z,10.86
2019-05-23T06:47:15.130Z,10.94
2019-05-23T06:48:15.122Z,10.97
2019-05-23T06:49:15.106Z,11.07
2019-05-23T06:50:15.083Z,11.10
2019-05-23T06:51:15.068Z,11.15
2019-05-23T06:52:15.060Z,11.27
2019-05-23T06:53:15.055Z,11.33
2019-05-23T06:54:15.030Z,11.36
2019-05-23T06:55:15.059Z,11.35
2019-05-23T06:56:15.006Z,11.51
2019-05-23T06:57:14.991Z,11.44
2019-05-23T06:58:14.975Z,11.52
2019-05-23T06:59:14.961Z,11.64
2019-05-23T07:00:14.951Z,11.55
2019-05-23T07:01:14.969Z,11.61
2019-05-23T07:02:14.923Z,11.62
2019-05-23T07:03:14.912Z,11.76
2019-05-23T07:04:14.897Z,11.75
2019-05-23T07:05:14.882Z,11.80
2019-05-23T07:06:14.869Z,11.88
2019-05-23T07:07:14.858Z,11.94
2019-05-23T07:08:14.843Z,12.02
2019-05-23T07:09:14.825Z,11.98
2019-05-23T07:10:14.813Z,12.07
2019-05-23T07:11:14.872Z,12.19
2019-05-23T07:12:14.787Z,12.19
2019-05-23T07:13:14.774Z,12.20
2019-05-23T07:14:14.758Z,12.29
2019-05-23T07:15:14.758Z,12.31
2019-05-23T07:16:14.731Z,12.39
2019-05-23T07:17:14.720Z,12.53
2019-05-23T07:18:14.711Z,12.41
2019-05-23T07:19:14.696Z,12.54
2019-05-23T07:20:14.679Z,12.57
2019-05-23T07:21:14.675Z,12.57
2019-05-23T07:22:17.905Z,12.54
2019-05-23T07:23:14.643Z,12.59
2019-05-23T07:24:14.650Z,12.62
2019-05-23T07:25:14.618Z,12.74
2019-05-23T07:26:14.598Z,12.71
2019-05-23T07:27:14.637Z,12.85
2019-05-23T07:28:14.572Z,12.86
2019-05-23T07:29:14.567Z,12.72
2019-05-23T07:30:14.551Z,12.85
2019-05-23T07:31:14.601Z,12.86
2019-05-23T07:32:14.531Z,12.86
2019-05-23T07:33:14.512Z,12.90
2019-05-23T07:34:14.500Z,12.86
2019-05-23T07:35:14.489Z,12.97
2019-05-23T07:36:14.471Z,12.90
2019-05-23T07:37:14.461Z,12.92
2019-05-23T07:38:14.449Z,13.01
2019-05-23T07:39:14.436Z,13.08
2019-05-23T07:40:14.431Z,13.10
2019-05-23T07:41:14.496Z,13.10
2019-05-23T07:42:14.410Z,13.08
2019-05-23T07:43:14.393Z,13.10
2019-05-23T07:44:14.384Z,13.07
2019-05-23T07:45:14.360Z,13.17
2019-05-23T07:46:14.343Z,13.14
2019-05-23T07:47:14.387Z,13.25
2019-05-23T07:48:14.328Z,13.36
2019-05-23T07:49:14.333Z,13.30
2019-05-23T07:50:14.313Z,13.36
2019-05-23T07:51:14.295Z,13.46
2019-05-23T07:52:14.276Z,13.48
2019-05-23T07:53:14.263Z,13.54
2019-05-23T07:54:14.517Z,13.55
2019-05-23T07:55:14.239Z,13.62
2019-05-23T07:56:14.230Z,13.73
2019-05-23T07:57:14.205Z,13.73
2019-05-23T07:58:14.431Z,13.73
2019-05-23T07:59:14.181Z,13.81
2019-05-23T08:00:14.183Z,13.75
2019-05-23T08:01:14.252Z,13.78
2019-05-23T08:02:14.152Z,13.52
2019-05-23T08:03:14.136Z,13.57
2019-05-23T08:04:21.416Z,13.52
2019-05-23T08:05:14.109Z,13.49
2019-05-23T08:06:14.107Z,13.54
2019-05-23T08:07:14.090Z,13.52
2019-05-23T08:08:14.081Z,13.60
2019-05-23T08:09:14.067Z,13.54
2019-05-23T08:10:14.064Z,13.63
2019-05-23T08:11:14.053Z,13.71
2019-05-23T08:12:14.024Z,13.78
2019-05-23T08:13:14.013Z,13.69
2019-05-23T08:14:13.997Z,13.82
2019-05-23T08:15:13.985Z,13.85
2019-05-23T08:16:13.976Z,13.88
2019-05-23T08:17:13.963Z,13.95
2019-05-23T08:18:13.956Z,13.91
2019-05-23T08:19:19.336Z,13.89
2019-05-23T08:20:13.929Z,14.07
2019-05-23T08:21:13.913Z,14.04
2019-05-23T08:22:13.902Z,14.07
2019-05-23T08:23:13.891Z,14.17
2019-05-23T08:24:13.877Z,14.22
2019-05-23T08:25:13.868Z,14.22
2019-05-23T08:26:13.854Z,14.22
2019-05-23T08:27:13.852Z,14.27
2019-05-23T08:28:13.830Z,14.33
2019-05-23T08:29:25.583Z,14.35
2019-05-23T08:30:13.808Z,14.32
2019-05-23T08:31:13.798Z,14.37
2019-05-23T08:32:13.781Z,14.35
2019-05-23T08:33:13.977Z,14.33
2019-05-23T08:34:13.759Z,14.46
2019-05-23T08:35:17.683Z,14.54
2019-05-23T08:36:13.732Z,14.57
2019-05-23T08:37:13.787Z,14.54
2019-05-23T08:38:13.702Z,14.57
2019-05-23T08:39:13.697Z,14.60
2019-05-23T08:40:13.686Z,14.65
2019-05-23T08:41:13.742Z,14.69
2019-05-23T08:42:13.666Z,14.72
2019-05-23T08:43:13.922Z,14.86
2019-05-23T08:44:13.637Z,14.81
2019-05-23T08:45:13.625Z,14.91
2019-05-23T08:46:13.613Z,14.83
2019-05-23T08:47:13.603Z,14.81
2019-05-23T08:48:13.590Z,14.78
2019-05-23T08:49:13.579Z,14.77
2019-05-23T08:50:13.566Z,14.80
2019-05-23T08:51:13.555Z,14.78
2019-05-23T08:52:13.544Z,14.94
2019-05-23T08:53:13.533Z,14.92
2019-05-23T08:54:13.530Z,14.91
2019-05-23T08:55:13.512Z,14.96
2019-05-23T08:56:18.740Z,14.98
2019-05-23T08:57:13.482Z,15.02
2019-05-23T08:58:13.477Z,15.02
2019-05-23T08:59:13.465Z,15.01
2019-05-23T09:00:13.457Z,14.98
2019-05-23T09:01:13.449Z,14.94
2019-05-23T09:02:13.429Z,15.02
2019-05-23T09:03:13.418Z,15.02
2019-05-23T09:04:13.435Z,15.10
2019-05-23T09:05:13.396Z,15.09
2019-05-23T09:06:13.385Z,15.03
2019-05-23T09:07:13.653Z,15.10
2019-05-23T09:08:16.681Z,15.21
2019-05-23T09:09:28.287Z,15.25
2019-05-23T09:10:13.339Z,15.21
2019-05-23T09:11:13.331Z,15.11
2019-05-23T09:12:13.311Z,15.23
2019-05-23T09:13:13.305Z,15.25
2019-05-23T09:14:13.291Z,15.28
2019-05-23T09:15:13.280Z,15.27
2019-05-23T09:16:13.274Z,15.23
2019-05-23T09:17:13.255Z,15.21
2019-05-23T09:18:13.253Z,15.27
2019-05-23T09:19:13.234Z,15.25
2019-05-23T09:20:13.300Z,15.32
2019-05-23T09:21:13.208Z,15.41
2019-05-23T09:22:13.208Z,15.36
2019-05-23T09:23:13.193Z,15.38
2019-05-23T09:24:13.177Z,15.38
2019-05-23T09:25:13.165Z,15.39
2019-05-23T09:26:13.151Z,15.56
2019-05-23T09:27:13.145Z,15.53
2019-05-23T09:28:13.125Z,15.59
2019-05-23T09:29:13.121Z,15.62
2019-05-23T09:30:13.108Z,15.53
2019-05-23T09:31:13.095Z,15.64
2019-05-23T09:32:13.084Z,15.62
2019-05-23T09:33:13.073Z,15.57
2019-05-23T09:34:13.062Z,15.65
2019-05-23T09:35:20.957Z,15.57
2019-05-23T09:36:13.038Z,15.65
2019-05-23T09:37:13.027Z,15.82
2019-05-23T09:38:13.017Z,15.83
2019-05-23T09:39:13.008Z,15.89
2019-05-23T09:40:12.996Z,15.94
2019-05-23T09:41:12.989Z,16.00
2019-05-23T09:42:12.973Z,16.04
2019-05-23T09:43:12.979Z,16.07
2019-05-23T09:44:12.953Z,16.09
2019-05-23T09:45:12.955Z,16.07
2019-05-23T09:46:12.931Z,16.12
2019-05-23T09:47:12.917Z,16.14
2019-05-23T09:48:12.911Z,16.08
2019-05-23T09:49:12.894Z,16.07
2019-05-23T09:50:12.881Z,16.05
2019-05-23T09:51:12.872Z,16.17
2019-05-23T09:52:12.885Z,16.11
2019-05-23T09:53:12.850Z,16.05
2019-05-23T09:54:12.847Z,16.07
2019-05-23T09:55:12.845Z,16.14
2019-05-23T09:56:12.824Z,16.23
2019-05-23T09:57:12.799Z,16.20
2019-05-23T09:58:12.799Z,16.14
2019-05-23T09:59:12.780Z,16.20
2019-05-23T10:00:12.780Z,16.27
2019-05-23T10:01:12.762Z,16.23
2019-05-23T10:02:12.760Z,16.41
2019-05-23T10:03:12.744Z,16.34
2019-05-23T10:04:12.728Z,16.43
2019-05-23T10:05:12.712Z,16.38
2019-05-23T10:06:12.713Z,16.33
2019-05-23T10:07:12.707Z,16.34
2019-05-23T10:08:12.685Z,16.50
2019-05-23T10:09:12.675Z,16.48
2019-05-23T10:10:12.665Z,16.56
2019-05-23T10:11:12.661Z,16.60
2019-05-23T10:12:12.638Z,16.68
2019-05-23T10:13:12.633Z,16.78
2019-05-23T10:14:12.624Z,16.68
2019-05-23T10:15:12.614Z,16.64
2019-05-23T10:16:12.609Z,16.61
2019-05-23T10:17:12.585Z,16.71
2019-05-23T10:18:12.578Z,16.70
2019-05-23T10:19:12.576Z,16.63
2019-05-23T10:20:12.565Z,16.75
2019-05-23T10:21:12.578Z,16.76
2019-05-23T10:22:12.538Z,16.94
2019-05-23T10:23:12.523Z,16.91
2019-05-23T10:24:12.524Z,16.91
2019-05-23T10:25:12.502Z,16.86
2019-05-23T10:26:12.493Z,16.88
2019-05-23T10:27:12.483Z,16.82
2019-05-23T10:28:12.474Z,16.82
2019-05-23T10:29:12.458Z,16.91
2019-05-23T10:30:12.458Z,16.98
2019-05-23T10:31:12.441Z,16.94
2019-05-23T10:32:12.427Z,17.04
2019-05-23T10:33:13.334Z,16.88
2019-05-23T10:34:12.402Z,16.96
2019-05-23T10:35:12.407Z,17.01
2019-05-23T10:36:12.388Z,17.03
2019-05-23T10:37:12.378Z,17.16
2019-05-23T10:38:12.379Z,17.15
2019-05-23T10:39:12.357Z,17.16
2019-05-23T10:40:12.348Z,17.21
2019-05-23T10:41:12.336Z,17.23
2019-05-23T10:42:12.324Z,17.21
2019-05-23T10:43:12.318Z,17.28
2019-05-23T10:44:12.325Z,17.28
2019-05-23T10:45:12.298Z,17.34
2019-05-23T10:46:12.281Z,17.49
2019-05-23T10:47:12.272Z,17.62
2019-05-23T10:48:12.267Z,17.58
2019-05-23T10:49:12.260Z,17.68
2019-05-23T10:50:12.243Z,17.68
2019-05-23T10:51:12.241Z,17.63
2019-05-23T10:52:12.222Z,17.68
2019-05-23T10:53:12.209Z,17.68
2019-05-23T10:54:12.201Z,17.68
2019-05-23T10:55:12.190Z,17.66
2019-05-23T10:56:12.197Z,17.66
2019-05-23T10:57:12.173Z,17.59
2019-05-23T10:58:12.166Z,17.62
2019-05-23T10:59:12.150Z,17.63
2019-05-23T11:00:12.147Z,17.74
2019-05-23T11:01:12.130Z,17.64
2019-05-23T11:02:12.119Z,17.74
2019-05-23T11:03:12.109Z,17.68
2019-05-23T11:04:12.103Z,17.68
2019-05-23T11:05:14.098Z,17.74
2019-05-23T11:06:15.963Z,17.79
2019-05-23T11:07:12.071Z,17.82
2019-05-23T11:08:12.068Z,17.86
2019-05-23T11:09:12.051Z,17.99
2019-05-23T11:10:12.042Z,17.90
2019-05-23T11:11:14.487Z,17.99
2019-05-23T11:12:12.029Z,18.10
2019-05-23T11:13:12.011Z,18.00
2019-05-23T11:14:12.007Z,18.10
2019-05-23T11:15:11.999Z,18.14
2019-05-23T11:16:11.978Z,18.12
2019-05-23T11:17:12.064Z,18.23
2019-05-23T11:18:11.966Z,18.23
2019-05-23T11:19:11.956Z,18.18
2019-05-23T11:20:11.940Z,18.20
2019-05-23T11:21:11.938Z,18.29
2019-05-23T11:22:11.925Z,18.29
2019-05-23T11:23:11.999Z,18.25
2019-05-23T11:24:11.901Z,18.39
2019-05-23T11:25:11.906Z,18.50
2019-05-23T11:26:11.879Z,18.50
2019-05-23T11:27:11.873Z,18.52
2019-05-23T11:28:11.880Z,18.54
2019-05-23T11:29:11.849Z,18.66
2019-05-23T11:30:11.837Z,18.57
2019-05-23T11:31:11.837Z,18.57
2019-05-23T11:32:11.821Z,18.55
2019-05-23T11:33:11.826Z,18.52
2019-05-23T11:34:11.825Z,18.60
2019-05-23T11:35:11.796Z,18.73
2019-05-23T11:36:11.788Z,18.75
2019-05-23T11:37:11.775Z,18.73
2019-05-23T11:38:11.769Z,18.91
2019-05-23T11:39:11.758Z,18.78
2019-05-23T11:40:11.751Z,18.76
2019-05-23T11:41:11.749Z,18.76
2019-05-23T11:42:11.734Z,18.94
2019-05-23T11:43:11.723Z,18.87
2019-05-23T11:44:11.709Z,18.92
2019-05-23T11:45:11.708Z,19.08
2019-05-23T11:46:11.694Z,19.10
2019-05-23T11:47:11.686Z,19.16
2019-05-23T11:48:11.726Z,19.22
2019-05-23T11:49:11.988Z,19.21
2019-05-23T11:50:11.653Z,19.16
2019-05-23T11:51:11.645Z,19.13
2019-05-23T11:52:11.645Z,19.16
2019-05-23T11:53:11.622Z,19.13
2019-05-23T11:54:11.627Z,19.16
2019-05-23T11:55:11.622Z,19.11
2019-05-23T11:56:11.592Z,19.13
2019-05-23T11:57:11.588Z,19.22
2019-05-23T11:58:11.640Z,19.26
2019-05-23T11:59:11.609Z,19.32
2019-05-23T12:00:11.581Z,19.32
2019-05-23T12:01:19.844Z,19.39
2019-05-23T12:02:11.545Z,19.31
2019-05-23T12:03:11.532Z,19.19
2019-05-23T12:04:11.562Z,19.22
2019-05-23T12:05:11.543Z,19.26
2019-05-23T12:06:11.509Z,19.33
2019-05-23T12:07:11.510Z,19.32
2019-05-23T12:08:11.490Z,19.43
2019-05-23T12:09:11.479Z,19.43
2019-05-23T12:10:11.473Z,19.55
2019-05-23T12:11:11.474Z,19.46
2019-05-23T12:12:11.465Z,19.46
2019-05-23T12:13:11.446Z,19.43
2019-05-23T12:14:11.446Z,19.40
2019-05-23T12:15:11.428Z,19.37
2019-05-23T12:16:11.419Z,19.39
2019-05-23T12:17:11.405Z,19.37
2019-05-23T12:18:11.402Z,19.36
2019-05-23T12:19:11.393Z,19.39
2019-05-23T12:20:11.715Z,19.44
2019-05-23T12:21:11.369Z,19.51
2019-05-23T12:22:11.446Z,19.46
2019-05-23T12:23:11.432Z,19.41
2019-05-23T12:24:11.346Z,19.31
2019-05-23T12:25:22.196Z,19.36
2019-05-23T12:26:11.326Z,19.19
2019-05-23T12:27:11.323Z,19.29
2019-05-23T12:28:11.410Z,19.40
2019-05-23T12:29:11.311Z,19.31
2019-05-23T12:30:11.302Z,19.50
2019-05-23T12:31:11.289Z,19.46
2019-05-23T12:32:11.275Z,19.61
2019-05-23T12:33:11.271Z,19.59
2019-05-23T12:34:11.276Z,19.63
2019-05-23T12:35:11.988Z,19.63
2019-05-23T12:36:11.244Z,19.73
2019-05-23T12:37:18.977Z,19.78
2019-05-23T12:38:11.222Z,19.78
2019-05-23T12:39:11.234Z,19.92
2019-05-23T12:40:11.204Z,19.99
2019-05-23T12:41:11.193Z,19.92
2019-05-23T12:42:11.344Z,19.99
2019-05-23T12:43:11.181Z,20.05
2019-05-23T12:44:11.176Z,20.02
2019-05-23T12:45:11.165Z,20.11
2019-05-23T12:46:11.221Z,20.13
2019-05-23T12:47:11.156Z,20.18
2019-05-23T12:48:11.141Z,20.20
2019-05-23T12:49:11.130Z,20.03
2019-05-23T12:50:11.117Z,20.06
2019-05-23T12:51:11.123Z,20.08
2019-05-23T12:52:11.107Z,20.10
2019-05-23T12:53:11.100Z,20.24
2019-05-23T12:54:11.099Z,20.20
2019-05-23T12:55:11.080Z,20.31
2019-05-23T12:56:11.228Z,20.35
2019-05-23T12:57:11.063Z,20.48
2019-05-23T12:58:11.157Z,20.41
2019-05-23T12:59:11.042Z,20.39
2019-05-23T13:00:11.037Z,20.36
2019-05-23T13:01:11.027Z,20.38
2019-05-23T13:02:11.017Z,20.50
2019-05-23T13:03:11.009Z,20.47
2019-05-23T13:04:11.009Z,20.50
2019-05-23T13:05:10.996Z,20.61